Time;durP1;ratioP1;P1;durP2;ratioP2;P2;SDS_P1;SDS_P2;PMS_P1;PMS_P2;Temp;Humidity;BMP_temperature;BMP_pressure;BME280_temperature;BME280_humidity;BME280_pressure;Samples;Min_cycle;Max_cycle;Signal;HPM_P1;HPM_P2
2022/06/19 00:02:25;;;;;;;6.57;4.07;;;;;;;20.87;70.15;99374.66;5094130;28;20040;-81
2022/06/19 00:04:53;;;;;;;8.57;4.50;;;;;;;20.84;70.10;99367.00;5076069;28;20020;-81
2022/06/19 00:07:19;;;;;;;5.15;4.18;;;;;;;20.85;70.17;99373.13;5093699;28;20079;-81
2022/06/19 00:09:45;;;;;;;8.48;4.60;;;;;;;20.81;70.29;99356.69;5076042;28;20123;-81
2022/06/19 00:12:11;;;;;;;6.82;4.05;;;;;;;20.82;71.13;99365.47;5093976;28;20375;-81
2022/06/19 00:14:37;;;;;;;6.32;3.95;;;;;;;20.83;70.66;99375.91;5093615;28;20034;-81
2022/06/19 00:17:06;;;;;;;5.15;3.80;;;;;;;20.73;70.61;99356.59;5094453;28;20024;-81
2022/06/19 00:19:32;;;;;;;7.68;4.22;;;;;;;20.72;70.71;99362.00;5093720;28;20111;-81
2022/06/19 00:21:57;;;;;;;5.45;3.88;;;;;;;20.73;70.54;99367.19;5075643;28;20123;-81
2022/06/19 00:24:23;;;;;;;6.40;3.85;;;;;;;20.65;71.31;99352.00;5093894;28;20488;-81
2022/06/19 00:26:48;;;;;;;6.22;3.90;;;;;;;20.74;70.76;99374.13;5093792;28;20024;-81
2022/06/19 00:29:14;;;;;;;5.25;3.80;;;;;;;20.61;71.49;99355.91;5093600;28;20463;-81
2022/06/19 00:31:39;;;;;;;10.10;3.85;;;;;;;20.70;71.47;99367.47;5093679;28;20027;-81
2022/06/19 00:34:05;;;;;;;9.73;4.38;;;;;;;20.58;71.54;99360.66;5093445;28;20059;-81
2022/06/19 00:36:30;;;;;;;6.13;4.15;;;;;;;20.58;71.95;99377.38;5093473;28;20467;-81
2022/06/19 00:38:56;;;;;;;6.20;4.13;;;;;;;20.57;71.91;99374.88;5093650;28;20028;-81
2022/06/19 00:41:23;;;;;;;6.68;4.57;;;;;;;20.46;72.31;99352.00;5093234;28;20020;-81
2022/06/19 00:44:01;;;;;;;9.13;4.45;;;;;;;20.44;73.29;99357.44;5093647;28;20028;-80
2022/06/19 00:47:00;;;;;;;6.25;4.15;;;;;;;20.51;73.62;99384.19;5093289;28;20487;-81
2022/06/19 00:49:34;;;;;;;5.38;3.92;;;;;;;20.47;73.30;99366.06;5093214;28;20031;-81
2022/06/19 00:52:05;;;;;;;6.10;3.75;;;;;;;20.50;73.12;99371.94;5075096;28;20048;-81
2022/06/19 00:54:40;;;;;;;;;;;;;;;20.49;73.29;99375.56;5093618;28;20258;-81
2022/06/19 00:57:05;;;;;;;5.05;3.75;;;;;;;20.34;73.42;99356.59;5093199;28;19915;-81
2022/06/19 00:59:31;;;;;;;6.00;4.05;;;;;;;20.40;73.69;99369.28;5093066;28;20471;-80
2022/06/19 01:01:57;;;;;;;6.57;3.58;;;;;;;20.35;73.94;99366.25;5093466;28;20024;-80
2022/06/19 01:04:33;;;;;;;7.72;4.35;;;;;;;20.28;73.80;99351.06;5092844;28;20028;-80
2022/06/19 01:06:58;;;;;;;4.88;3.80;;;;;;;20.19;73.47;99348.28;5092953;28;20491;-80
2022/06/19 01:09:24;;;;;;;5.35;4.13;;;;;;;20.18;74.09;99349.28;5074665;28;20023;-80
2022/06/19 01:11:50;;;;;;;5.43;3.78;;;;;;;20.17;74.54;99350.22;5092992;28;20032;-80
2022/06/19 01:14:20;;;;;;;5.70;3.88;;;;;;;20.17;75.12;99360.78;5092849;28;20073;-80
2022/06/19 01:16:46;;;;;;;5.30;4.20;;;;;;;20.10;75.59;99353.56;5092810;28;20016;-80
2022/06/19 01:19:24;;;;;;;6.43;3.85;;;;;;;20.14;75.70;99358.44;5092765;28;20361;-81
2022/06/19 01:21:55;;;;;;;5.43;3.95;;;;;;;20.14;75.46;99361.09;5074731;28;20383;-80
2022/06/19 01:24:39;;;;;;;5.15;3.78;;;;;;;20.15;75.02;99362.75;5092510;28;20031;-80
2022/06/19 01:27:08;;;;;;;8.57;4.10;;;;;;;20.11;75.30;99360.53;5092745;28;20490;-80
2022/06/19 01:29:34;;;;;;;6.50;3.88;;;;;;;20.02;75.15;99340.22;5074096;28;20019;-80
2022/06/19 01:32:04;;;;;;;4.80;4.05;;;;;;;19.98;75.14;99337.03;5092117;28;20627;-80
2022/06/19 01:34:38;;;;;;;6.63;4.15;;;;;;;20.05;76.02;99355.78;5092346;28;20052;-80
2022/06/19 01:37:14;;;;;;;5.07;3.80;;;;;;;19.98;75.68;99341.47;5092527;28;20035;-80
2022/06/19 01:39:53;;;;;;;6.95;3.70;;;;;;;19.94;76.11;99339.09;5092258;28;20028;-80
2022/06/19 01:42:18;;;;;;;4.40;3.78;;;;;;;19.96;76.29;99348.69;5092318;28;20028;-80
2022/06/19 01:44:45;;;;;;;5.25;3.83;;;;;;;19.97;76.77;99347.72;5092025;28;20024;-80
2022/06/19 01:47:12;;;;;;;9.88;4.35;;;;;;;19.99;76.89;99353.72;5092397;28;20028;-81
2022/06/19 01:49:41;;;;;;;9.77;4.53;;;;;;;20.01;75.91;99363.16;5092106;28;20035;-80
2022/06/19 01:52:07;;;;;;;5.82;4.10;;;;;;;19.95;76.16;99345.22;5092229;28;20032;-81
2022/06/19 01:54:41;;;;;;;4.40;3.60;;;;;;;19.97;76.92;99353.00;5091830;28;20114;-81
2022/06/19 01:57:08;;;;;;;7.10;3.78;;;;;;;19.85;77.18;99333.81;5092032;28;20030;-80
2022/06/19 01:59:35;;;;;;;7.47;3.70;;;;;;;19.91;76.99;99341.19;5092184;28;20020;-80
2022/06/19 02:02:03;;;;;;;5.75;3.72;;;;;;;19.83;76.78;99330.47;5092242;28;20043;-80
2022/06/19 02:04:31;;;;;;;5.00;3.83;;;;;;;19.81;76.80;99330.63;5091920;28;20024;-80
2022/06/19 02:07:00;;;;;;;5.18;3.70;;;;;;;19.75;77.51;99325.03;5091807;28;20059;-79
2022/06/19 02:09:25;;;;;;;7.22;4.10;;;;;;;19.68;77.92;99311.56;5092153;28;20027;-79
2022/06/19 02:11:51;;;;;;;6.90;3.90;;;;;;;19.80;78.53;99334.22;5091980;28;20387;-80
2022/06/19 02:14:19;;;;;;;6.60;4.05;;;;;;;19.74;78.32;99321.56;5091912;28;20028;-79
2022/06/19 02:16:47;;;;;;;7.80;4.00;;;;;;;19.71;78.51;99321.00;5073659;28;20024;-80
2022/06/19 02:19:13;;;;;;;5.25;3.58;;;;;;;19.64;78.98;99308.34;5091968;28;20469;-80
2022/06/19 02:21:48;;;;;;;8.57;3.92;;;;;;;19.74;79.32;99318.09;5091613;28;20070;-79
2022/06/19 02:24:19;;;;;;;6.78;4.22;;;;;;;19.68;79.30;99312.38;5092026;28;20028;-80
2022/06/19 02:26:47;;;;;;;5.00;3.70;;;;;;;19.62;79.83;99310.28;5091750;28;20032;-80
2022/06/19 02:29:16;;;;;;;5.75;4.15;;;;;;;19.66;79.69;99319.59;5073664;28;20028;-80
2022/06/19 02:31:50;;;;;;;4.53;3.83;;;;;;;19.57;79.51;99320.41;5073514;28;20071;-80
2022/06/19 02:34:27;;;;;;;8.18;3.83;;;;;;;19.68;80.29;99322.13;5091657;28;20140;-79
2022/06/19 02:36:58;;;;;;;4.80;3.97;;;;;;;19.66;80.65;99314.31;5091745;28;20478;-79
2022/06/19 02:39:42;;;;;;;5.43;3.95;;;;;;;19.66;80.71;99316.13;5091909;28;20030;-79
2022/06/19 02:42:30;;;;;;;6.00;4.00;;;;;;;19.56;81.76;99315.25;5092448;28;20107;-79
2022/06/19 02:44:58;;;;;;;6.30;4.28;;;;;;;19.54;81.03;99312.72;5095971;28;20479;-80
2022/06/19 02:47:26;;;;;;;6.30;4.07;;;;;;;19.51;81.38;99309.53;5077595;28;20060;-80
2022/06/19 02:49:53;;;;;;;5.13;4.03;;;;;;;19.39;81.69;99299.09;5095755;28;20024;-80
2022/06/19 02:52:19;;;;;;;6.90;4.00;;;;;;;19.39;81.79;99298.28;5095690;28;20028;-79
2022/06/19 02:54:44;;;;;;;9.70;4.20;;;;;;;19.36;82.75;99296.72;5095219;28;20035;-80
2022/06/19 02:57:12;;;;;;;9.13;4.45;;;;;;;19.39;82.70;99306.19;5095355;28;20024;-80
2022/06/19 02:59:37;;;;;;;7.00;4.43;;;;;;;19.44;82.35;99310.09;5095506;28;20020;-80
2022/06/19 03:02:03;;;;;;;6.10;4.18;;;;;;;19.43;82.37;99304.94;5095563;28;20043;-80
2022/06/19 03:04:39;;;;;;;5.50;3.95;;;;;;;19.36;83.06;99291.44;5095567;28;20145;-80
2022/06/19 03:07:05;;;;;;;6.60;4.10;;;;;;;19.42;82.44;99298.84;5073675;28;20053;-80
2022/06/19 03:09:31;;;;;;;5.03;3.78;;;;;;;19.40;82.74;99281.44;5073333;28;20032;-81
2022/06/19 03:11:57;;;;;;;5.00;3.70;;;;;;;19.50;82.11;99289.38;5073870;28;20067;-81
2022/06/19 03:14:24;;;;;;;5.38;3.92;;;;;;;19.48;82.29;99268.41;5074983;28;20621;-81
2022/06/19 03:16:49;;;;;;;6.22;4.10;;;;;;;19.64;80.88;99281.94;5074820;28;20035;-81
2022/06/19 03:19:15;;;;;;;7.85;4.22;;;;;;;19.71;80.00;99268.97;5073723;28;20025;-81
2022/06/19 03:21:41;;;;;;;5.60;4.15;;;;;;;19.80;79.17;99269.94;5073404;28;20119;-81
2022/06/19 03:24:06;;;;;;;5.43;3.95;;;;;;;19.87;78.69;99271.06;5074676;28;20024;-80
2022/06/19 03:26:32;;;;;;;7.15;4.15;;;;;;;19.94;78.08;99267.72;5074839;28;20028;-81
2022/06/19 03:28:58;;;;;;;6.57;3.80;;;;;;;20.03;77.66;99273.16;5074847;28;20021;-80
2022/06/19 03:31:25;;;;;;;4.70;3.95;;;;;;;20.04;77.27;99259.78;5073253;28;20032;-81
2022/06/19 03:33:51;;;;;;;5.13;4.40;;;;;;;20.11;77.50;99246.84;5074352;28;20031;-80
2022/06/19 03:36:17;;;;;;;6.07;4.28;;;;;;;20.30;77.54;99262.66;5073287;28;20032;-80
2022/06/19 03:38:43;;;;;;;5.90;3.97;;;;;;;20.34;77.09;99268.50;5074217;28;20052;-80
2022/06/19 03:41:10;;;;;;;6.68;4.10;;;;;;;20.31;77.23;99253.78;5074673;28;20071;-80
2022/06/19 03:43:35;;;;;;;5.63;3.80;;;;;;;20.40;77.26;99254.72;5074618;28;20032;-80
2022/06/19 03:46:05;;;;;;;4.03;3.58;;;;;;;20.42;77.38;99252.75;5074313;28;20102;-80
2022/06/19 03:48:31;;;;;;;5.15;3.83;;;;;;;20.60;77.48;99251.03;5074177;28;20107;-80
2022/06/19 03:50:56;;;;;;;9.50;4.38;;;;;;;20.59;77.96;99241.44;5074284;28;20107;-80
2022/06/19 03:53:22;;;;;;;5.03;4.18;;;;;;;20.66;77.71;99239.88;5073975;28;20107;-80
2022/06/19 03:55:48;;;;;;;5.28;3.90;;;;;;;20.76;78.19;99239.00;5073417;28;20029;-80
2022/06/19 03:58:14;;;;;;;6.07;3.88;;;;;;;20.75;77.86;99227.59;5072929;28;20021;-80
2022/06/19 04:00:39;;;;;;;5.65;4.13;;;;;;;20.89;77.89;99224.44;5072732;28;20033;-80
2022/06/19 04:03:05;;;;;;;6.40;4.30;;;;;;;20.89;77.74;99215.66;5074102;28;20028;-80
2022/06/19 04:05:31;;;;;;;7.13;4.22;;;;;;;21.00;77.32;99218.13;5073838;28;20086;-80
2022/06/19 04:07:57;;;;;;;4.35;3.40;;;;;;;21.14;77.05;99227.38;5090665;28;20052;-80
2022/06/19 04:10:23;;;;;;;5.00;4.22;;;;;;;21.24;76.54;99232.59;5094313;28;20028;-80
2022/06/19 04:12:49;;;;;;;7.18;3.72;;;;;;;21.34;75.90;99215.69;5093790;28;20035;-79
2022/06/19 04:15:14;;;;;;;7.10;4.95;;;;;;;21.61;74.85;99229.84;5094418;28;20028;-80
2022/06/19 04:17:40;;;;;;;5.97;4.15;;;;;;;21.69;74.30;99206.06;5093766;28;20079;-80
2022/06/19 04:20:07;;;;;;;5.38;3.92;;;;;;;21.95;73.89;99227.28;5093869;28;20056;-80
2022/06/19 04:22:34;;;;;;;7.43;3.83;;;;;;;22.05;73.56;99200.72;5093416;28;20060;-80
2022/06/19 04:25:00;;;;;;;6.55;3.97;;;;;;;22.34;72.83;99219.81;5093823;28;20031;-79
2022/06/19 04:27:25;;;;;;;5.30;4.25;;;;;;;22.57;71.24;99212.13;5093872;28;20463;-80
2022/06/19 04:29:51;;;;;;;4.75;3.72;;;;;;;22.88;70.17;99223.06;5075510;28;20035;-80
2022/06/19 04:32:16;;;;;;;3.97;3.42;;;;;;;23.44;67.48;99235.84;5093668;28;20028;-80
2022/06/19 04:34:42;;;;;;;4.95;3.70;;;;;;;23.90;65.61;99221.09;5093491;28;20024;-80
2022/06/19 04:37:07;;;;;;;4.43;3.20;;;;;;;24.23;63.47;99213.91;5093647;28;20050;-80
2022/06/19 04:39:33;;;;;;;5.47;3.53;;;;;;;24.60;62.35;99215.16;5093394;28;20024;-80
2022/06/19 04:41:59;;;;;;;5.63;3.70;;;;;;;24.72;60.54;99213.78;5093679;28;20103;-79
2022/06/19 04:44:26;;;;;;;7.32;3.75;;;;;;;24.79;60.02;99228.06;5093571;28;20057;-80
2022/06/19 04:46:51;;;;;;;4.57;3.20;;;;;;;24.89;59.60;99220.69;5093264;28;20127;-81
2022/06/19 04:49:17;;;;;;;4.68;3.50;;;;;;;25.16;58.77;99231.06;5093360;28;20103;-80
2022/06/19 04:51:43;;;;;;;4.57;3.60;;;;;;;25.29;57.86;99234.00;5093291;28;20036;-80
2022/06/19 04:54:09;;;;;;;4.43;3.00;;;;;;;25.44;57.05;99226.06;5093352;28;20060;-80
2022/06/19 04:56:35;;;;;;;5.03;3.28;;;;;;;25.92;55.29;99230.25;5092957;28;20077;-80
2022/06/19 04:59:00;;;;;;;8.07;3.55;;;;;;;26.39;53.20;99213.09;5093272;28;20352;-80
2022/06/19 05:01:31;;;;;;;8.57;3.75;;;;;;;27.18;50.94;99239.19;5074983;28;20038;-80
2022/06/19 05:04:00;;;;;;;5.97;3.10;;;;;;;27.35;49.71;99216.59;5093124;28;20387;-80
2022/06/19 05:06:26;;;;;;;4.50;2.97;;;;;;;27.55;48.92;99232.81;5091749;28;20488;-79
2022/06/19 05:08:52;;;;;;;4.60;3.22;;;;;;;27.35;49.38;99222.75;5092898;28;20123;-80
2022/06/19 05:11:20;;;;;;;5.15;3.33;;;;;;;27.48;49.73;99221.25;5093048;28;20492;-80
2022/06/19 05:13:45;;;;;;;5.47;3.15;;;;;;;27.55;48.79;99216.75;5092669;28;20102;-80
2022/06/19 05:16:14;;;;;;;7.05;3.40;;;;;;;27.74;48.45;99240.25;5092945;28;20111;-82
2022/06/19 05:18:41;;;;;;;6.45;3.40;;;;;;;27.81;48.44;99226.91;5092512;28;20025;-81
2022/06/19 05:21:07;;;;;;;5.97;3.53;;;;;;;28.54;46.56;99230.16;5092964;28;20024;-82
2022/06/19 05:23:34;;;;;;;4.63;3.08;;;;;;;29.38;43.90;99219.16;5092666;28;20035;-81
2022/06/19 05:26:02;;;;;;;5.90;3.65;;;;;;;30.09;41.55;99223.97;5092577;28;20023;-82
2022/06/19 05:28:29;;;;;;;6.00;3.03;;;;;;;30.32;41.80;99223.53;5092741;28;20111;-82
2022/06/19 05:30:59;;;;;;;3.30;3.00;;;;;;;30.20;41.45;99217.16;5074302;28;20039;-82
2022/06/19 05:33:26;;;;;;;6.63;3.38;;;;;;;30.09;41.30;99218.59;5092408;28;20101;-82
2022/06/19 05:35:51;;;;;;;6.47;2.90;;;;;;;30.33;41.55;99231.38;5092228;28;20506;-82
2022/06/19 05:38:17;;;;;;;4.65;3.10;;;;;;;30.38;41.43;99221.88;5092647;28;20028;-82
2022/06/19 05:40:42;;;;;;;8.98;2.88;;;;;;;30.38;40.83;99206.56;5092384;28;20032;-82
2022/06/19 05:43:08;;;;;;;4.80;3.00;;;;;;;30.37;40.72;99191.50;5092472;28;20106;-82
2022/06/19 05:45:34;;;;;;;3.30;2.50;;;;;;;30.47;40.30;99205.31;5092442;28;20028;-82
2022/06/19 05:47:59;;;;;;;6.13;3.38;;;;;;;30.87;40.33;99189.06;5091960;28;20020;-84
2022/06/19 05:50:25;;;;;;;5.80;2.53;;;;;;;31.12;39.88;99207.16;5092612;28;20020;-81
2022/06/19 05:52:50;;;;;;;4.70;3.03;;;;;;;31.00;39.35;99202.44;5092201;28;20024;-81
2022/06/19 05:55:16;;;;;;;4.38;2.70;;;;;;;30.94;39.72;99179.13;5074233;28;20097;-81
2022/06/19 05:57:41;;;;;;;5.18;2.90;;;;;;;31.05;38.74;99183.78;5092013;28;20024;-80
2022/06/19 06:00:08;;;;;;;6.32;2.70;;;;;;;31.25;38.28;99182.84;5092531;28;20032;-80
2022/06/19 06:02:35;;;;;;;6.57;3.13;;;;;;;31.16;38.67;99187.69;5092318;28;20413;-81
2022/06/19 06:05:01;;;;;;;4.10;2.72;;;;;;;31.72;37.87;99173.41;5092049;28;20102;-81
2022/06/19 06:07:26;;;;;;;5.57;2.85;;;;;;;32.29;36.60;99184.94;5092066;28;20136;-81
2022/06/19 06:09:51;;;;;;;5.57;3.08;;;;;;;32.70;34.55;99193.41;5073858;28;20441;-81
2022/06/19 06:12:17;;;;;;;4.15;2.78;;;;;;;33.02;34.12;99183.28;5092349;28;20442;-81
2022/06/19 06:14:42;;;;;;;3.17;2.88;;;;;;;33.50;33.88;99198.56;5091714;28;20024;-81
2022/06/19 06:17:09;;;;;;;8.35;3.28;;;;;;;33.89;33.15;99197.13;5093496;28;20035;-81
2022/06/19 06:19:35;;;;;;;4.03;2.67;;;;;;;34.11;32.42;99183.06;5098619;28;20028;-80
2022/06/19 06:22:04;;;;;;;3.90;2.53;;;;;;;34.33;32.29;99178.66;5080467;28;20073;-81
2022/06/19 06:24:31;;;;;;;5.80;2.33;;;;;;;34.69;31.58;99196.50;5098598;28;20024;-80
2022/06/19 06:26:58;;;;;;;8.27;2.60;;;;;;;35.00;31.27;99173.59;5098711;28;20363;-81
2022/06/19 06:29:24;;;;;;;6.22;2.90;;;;;;;35.84;30.15;99189.13;5098652;28;20025;-81
2022/06/19 06:31:49;;;;;;;3.67;2.70;;;;;;;37.27;28.28;99185.56;5098441;28;20047;-81
2022/06/19 06:34:15;;;;;;;6.53;2.40;;;;;;;39.15;25.76;99182.34;5098457;28;20020;-81
2022/06/19 06:36:40;;;;;;;6.28;2.72;;;;;;;40.92;23.79;99184.22;5098429;28;20031;-81
2022/06/19 06:39:06;;;;;;;4.10;2.60;;;;;;;42.29;22.13;99194.09;5098644;28;20020;-81
2022/06/19 06:41:31;;;;;;;3.97;2.50;;;;;;;43.16;19.94;99189.44;5098595;28;20031;-81
2022/06/19 06:43:56;;;;;;;3.38;2.50;;;;;;;43.52;20.41;99189.69;5098280;28;20035;-81
2022/06/19 06:46:24;;;;;;;3.42;2.25;;;;;;;44.77;19.47;99196.97;5098265;28;20026;-81
2022/06/19 06:48:53;;;;;;;4.90;2.95;;;;;;;45.53;18.26;99195.19;5098378;28;20081;-82
2022/06/19 06:51:24;;;;;;;9.05;2.60;;;;;;;46.43;17.26;99196.94;5098556;28;20452;-81
2022/06/19 06:53:50;;;;;;;4.97;2.67;;;;;;;47.37;16.98;99184.44;5098142;28;20016;-81
2022/06/19 06:56:15;;;;;;;4.88;2.50;;;;;;;48.05;16.26;99181.88;5098598;28;20356;-81
2022/06/19 06:58:41;;;;;;;3.90;2.38;;;;;;;48.61;15.59;99190.81;5098204;28;20032;-81
2022/06/19 07:01:15;;;;;;;2.70;2.33;;;;;;;49.31;15.19;99193.88;5098189;28;20024;-81
2022/06/19 07:03:43;;;;;;;3.95;2.47;;;;;;;49.29;15.13;99190.63;5098452;28;20031;-81
2022/06/19 07:06:08;;;;;;;2.88;2.20;;;;;;;48.50;15.30;99170.25;5098195;28;20043;-81
2022/06/19 07:08:34;;;;;;;3.72;2.65;;;;;;;49.09;15.22;99166.56;5098451;28;20031;-82
2022/06/19 07:11:00;;;;;;;3.50;2.45;;;;;;;49.83;15.02;99154.63;5098049;28;20024;-83
2022/06/19 07:13:25;;;;;;;4.50;2.75;;;;;;;50.24;13.38;99161.09;5097938;28;20020;-82
2022/06/19 07:15:51;;;;;;;4.10;2.45;;;;;;;50.46;13.70;99161.78;5097868;28;20035;-82
2022/06/19 07:18:18;;;;;;;3.50;2.30;;;;;;;50.81;13.41;99150.94;5098299;28;20031;-82
2022/06/19 07:20:43;;;;;;;3.40;2.30;;;;;;;51.02;13.30;99139.69;5098108;28;20394;-82
2022/06/19 07:23:09;;;;;;;2.92;2.45;;;;;;;51.52;12.96;99149.38;5098280;28;20023;-83
2022/06/19 07:25:34;;;;;;;3.83;3.05;;;;;;;51.92;12.21;99138.16;5097932;28;20035;-82
2022/06/19 07:27:59;;;;;;;4.03;2.25;;;;;;;52.07;12.40;99147.63;5097385;28;20032;-81
2022/06/19 07:30:26;;;;;;;4.15;2.40;;;;;;;52.07;12.08;99151.22;5094048;28;20456;-82
2022/06/19 07:32:52;;;;;;;6.10;2.58;;;;;;;52.06;12.51;99144.03;5094535;28;20056;-82
2022/06/19 07:35:18;;;;;;;4.18;2.50;;;;;;;52.51;12.07;99142.72;5094869;28;20479;-83
2022/06/19 07:37:44;;;;;;;2.83;1.90;;;;;;;52.97;11.56;99140.09;5094831;28;20103;-82
2022/06/19 07:40:15;;;;;;;5.47;2.67;;;;;;;52.84;11.57;99141.41;5094802;28;20042;-82
2022/06/19 07:42:41;;;;;;;7.72;2.83;;;;;;;53.00;11.25;99130.22;5094590;28;20028;-83
2022/06/19 07:45:07;;;;;;;3.35;2.50;;;;;;;52.95;11.30;99142.47;5094318;28;20494;-83
2022/06/19 07:50:17;;;;;;;4.63;2.50;;;;;;;53.66;11.36;99134.66;5093996;28;20031;-81
2022/06/19 07:52:45;;;;;;;3.58;2.17;;;;;;;54.12;11.09;99131.03;5094368;28;20020;-81
2022/06/19 07:55:14;;;;;;;5.07;2.45;;;;;;;54.31;10.43;99136.47;5093719;28;20482;-81
2022/06/19 07:57:39;;;;;;;4.40;2.50;;;;;;;53.56;10.89;99126.91;5093767;28;20472;-81
2022/06/19 08:00:09;;;;;;;7.07;2.45;;;;;;;53.56;10.73;99116.59;5094114;28;20046;-81
2022/06/19 08:02:34;;;;;;;4.32;2.10;;;;;;;53.78;10.16;99120.53;5094420;28;20039;-82
2022/06/19 08:04:59;;;;;;;6.78;2.55;;;;;;;53.68;10.65;99117.56;5093873;28;20390;-82
2022/06/19 08:07:25;;;;;;;3.75;2.03;;;;;;;53.02;11.38;99111.22;5093891;28;20517;-81
2022/06/19 08:09:51;;;;;;;5.28;2.40;;;;;;;53.37;10.66;99118.63;5094166;28;20051;-81
2022/06/19 08:12:16;;;;;;;3.38;2.30;;;;;;;53.67;10.24;99102.84;5094219;28;20062;-81
2022/06/19 08:14:42;;;;;;;6.32;2.63;;;;;;;53.78;10.52;99105.81;5074605;28;20481;-81
2022/06/19 08:17:07;;;;;;;6.40;2.40;;;;;;;52.45;11.14;99110.78;5093280;28;20051;-83
2022/06/19 08:19:33;;;;;;;4.00;2.10;;;;;;;49.03;13.12;99107.91;5092865;28;20114;-81
2022/06/19 08:21:58;;;;;;;3.58;2.40;;;;;;;46.17;15.36;99092.22;5093660;28;20467;-82
2022/06/19 08:24:24;;;;;;;6.68;2.80;;;;;;;44.03;16.77;99085.34;5093601;28;20130;-81
2022/06/19 08:26:50;;;;;;;4.50;2.55;;;;;;;42.86;18.13;99079.19;5093408;28;20421;-82
2022/06/19 08:29:16;;;;;;;5.35;2.72;;;;;;;41.68;19.27;99073.53;5092044;28;20040;-82
2022/06/19 08:31:41;;;;;;;7.45;2.55;;;;;;;40.63;20.68;99064.84;5092586;28;20504;-82
2022/06/19 08:34:07;;;;;;;3.92;2.47;;;;;;;39.87;21.22;99072.25;5074765;28;20056;-82
2022/06/19 08:36:35;;;;;;;7.97;2.70;;;;;;;39.41;21.93;99055.16;5093448;28;20028;-82
2022/06/19 08:39:05;;;;;;;6.40;2.50;;;;;;;39.12;22.14;99071.22;5093446;28;20135;-82
2022/06/19 08:41:39;;;;;;;5.45;2.67;;;;;;;38.81;22.39;99071.22;5075365;28;20020;-82
2022/06/19 08:44:35;;;;;;;3.20;2.50;;;;;;;38.49;23.18;99065.13;5093199;28;20032;-82
2022/06/19 08:47:52;;;;;;;8.25;2.80;;;;;;;38.23;23.19;99062.31;4991073;28;20104;-82
2022/06/19 08:50:27;;;;;;;3.83;2.72;;;;;;;37.99;23.92;99047.53;4876514;29;20044;-82
2022/06/19 08:53:01;;;;;;;3.70;2.72;;;;;;;37.68;24.30;99055.50;4876307;29;20045;-82
2022/06/19 08:55:37;;;;;;;8.80;3.10;;;;;;;37.29;24.29;99044.06;4876796;29;20173;-82
2022/06/19 08:58:34;;;;;;;3.78;2.40;;;;;;;36.99;25.41;99056.31;4876457;29;20041;-82
2022/06/19 09:01:25;;;;;;;5.10;2.78;;;;;;;36.84;25.77;99050.75;4876644;29;20057;-82
2022/06/19 09:07:17;;;;;;;3.45;2.50;;;;;;;36.64;26.32;99046.75;4875594;29;20116;-82
2022/06/19 09:10:04;;;;;;;4.82;2.75;;;;;;;36.59;26.15;99038.56;4892200;29;20536;-82
2022/06/19 09:13:15;;;;;;;7.03;2.92;;;;;;;36.49;26.09;99038.44;4876659;29;20045;-82
2022/06/19 09:15:49;;;;;;;4.43;2.40;;;;;;;36.32;26.97;99010.59;4876534;29;20091;-82
2022/06/19 09:18:39;;;;;;;5.15;2.83;;;;;;;36.15;26.36;99016.09;4876612;29;20041;-82
2022/06/19 09:21:21;;;;;;;6.85;2.95;;;;;;;35.96;26.63;99015.59;4876352;29;20112;-82
2022/06/19 09:23:58;;;;;;;5.00;2.60;;;;;;;35.80;26.82;99030.00;4902382;29;20122;-81
2022/06/19 09:26:56;;;;;;;4.03;2.38;;;;;;;35.70;27.20;99014.44;4988692;28;20046;-81
2022/06/19 09:29:57;;;;;;;5.97;3.08;;;;;;;35.81;27.43;99029.75;5089519;28;20544;-81
2022/06/19 09:32:50;;;;;;;5.53;2.83;;;;;;;35.68;27.09;99019.28;4988806;28;20109;-81
2022/06/19 09:35:27;;;;;;;8.75;2.92;;;;;;;35.61;26.76;99015.91;4990573;28;20034;-82
2022/06/19 09:38:11;;;;;;;6.55;2.83;;;;;;;35.52;26.77;99009.31;4990430;28;20057;-82
2022/06/19 09:40:45;;;;;;;4.57;2.90;;;;;;;35.55;26.81;99000.69;4989628;28;20413;-81
2022/06/19 09:43:10;;;;;;;7.45;3.05;;;;;;;35.70;26.60;99009.03;4988856;28;20419;-81
2022/06/19 09:45:41;;;;;;;7.18;2.67;;;;;;;35.55;25.76;99004.22;4988998;28;20493;-80
2022/06/19 09:48:37;;;;;;;3.97;2.72;;;;;;;35.58;26.37;99014.56;4988833;28;20486;-80
2022/06/19 09:51:21;;;;;;;4.43;2.97;;;;;;;35.57;26.48;99007.50;4988767;28;20030;-80
2022/06/19 09:53:50;;;;;;;4.93;2.90;;;;;;;35.40;26.41;98996.69;4987200;28;20101;-82
2022/06/19 09:56:29;;;;;;;5.10;2.60;;;;;;;35.31;25.55;98997.31;4988956;28;20022;-81
2022/06/19 09:59:17;;;;;;;6.28;2.88;;;;;;;35.25;26.51;98988.31;4988486;28;20030;-81
2022/06/19 10:01:46;;;;;;;7.90;2.88;;;;;;;35.22;27.06;98986.91;4987355;28;20038;-81
2022/06/19 10:04:18;;;;;;;6.25;3.22;;;;;;;35.13;26.84;98963.22;4989599;28;20079;-80
2022/06/19 10:06:49;;;;;;;6.53;3.55;;;;;;;35.19;26.89;98978.50;5055878;28;20150;-80
2022/06/19 10:09:23;;;;;;;6.82;2.85;;;;;;;35.20;26.17;98978.25;5091542;28;20020;-80
2022/06/19 10:11:54;;;;;;;6.57;3.05;;;;;;;35.16;26.92;98979.81;5092008;28;20040;-80
2022/06/19 10:14:31;;;;;;;8.98;2.55;;;;;;;35.19;27.15;98975.78;5091748;28;20031;-80
2022/06/19 10:17:25;;;;;;;8.30;2.70;;;;;;;35.19;27.79;98975.78;5092073;28;20089;-80
2022/06/19 10:20:03;;;;;;;7.25;3.17;;;;;;;35.17;27.06;98986.03;4990017;28;20119;-80
2022/06/19 10:22:51;;;;;;;7.32;3.35;;;;;;;35.11;26.38;98973.50;4989989;28;20042;-80
2022/06/19 10:25:45;;;;;;;6.35;3.13;;;;;;;34.85;26.25;98967.66;4989360;28;20038;-80
2022/06/19 10:28:27;;;;;;;5.68;2.70;;;;;;;34.79;26.68;98971.34;4989530;28;20063;-80
2022/06/19 10:31:17;;;;;;;5.28;2.58;;;;;;;34.77;26.20;98976.19;4989314;28;20092;-80
2022/06/19 10:33:48;;;;;;;10.93;3.25;;;;;;;34.57;25.69;98973.13;4989429;28;20030;-80
2022/06/19 10:36:18;;;;;;;7.28;3.00;;;;;;;34.40;26.55;98963.06;4989401;28;20030;-80
2022/06/19 10:39:08;;;;;;;13.10;3.55;;;;;;;34.38;26.61;98965.19;4973211;28;20573;-80
2022/06/19 10:42:01;;;;;;;6.35;2.92;;;;;;;34.41;26.70;98975.53;4989781;28;20062;-80
2022/06/19 10:44:43;;;;;;;10.23;2.97;;;;;;;34.50;26.68;98965.16;4972729;28;20505;-80
2022/06/19 10:47:16;;;;;;;15.55;3.30;;;;;;;34.51;25.63;98969.50;4989565;28;20030;-80
2022/06/19 10:50:11;;;;;;;10.27;2.92;;;;;;;34.50;26.49;98965.16;4989697;28;20042;-80
2022/06/19 10:53:15;;;;;;;5.85;3.13;;;;;;;34.57;26.79;98965.84;4989733;28;20058;-79
2022/06/19 10:55:48;;;;;;;7.32;3.00;;;;;;;34.54;25.85;98947.38;5000255;28;20379;-80
2022/06/19 10:58:18;;;;;;;9.63;3.17;;;;;;;34.56;25.86;98961.50;5091343;28;20051;-80
2022/06/19 11:00:49;;;;;;;8.77;2.40;;;;;;;34.44;25.07;98945.31;5091815;28;20482;-80
2022/06/19 11:06:52;;;;;;;12.07;3.17;;;;;;;34.39;25.25;98947.94;5095170;28;20548;-80
2022/06/19 11:09:43;;;;;;;8.27;3.38;;;;;;;34.16;25.83;98938.03;5094913;28;20055;-80
2022/06/19 11:12:34;;;;;;;16.75;3.38;;;;;;;34.22;25.87;98930.88;5094649;28;20048;-80
2022/06/19 11:15:03;;;;;;;11.70;2.83;;;;;;;34.09;25.59;98914.91;5094872;28;20046;-80
2022/06/19 11:17:34;;;;;;;;;;;;;;;34.13;26.01;98930.41;5094974;28;20024;-80
2022/06/19 11:20:17;;;;;;;7.82;2.97;;;;;;;34.01;26.04;98925.06;5094678;28;19997;-80
2022/06/19 11:22:46;;;;;;;10.95;2.97;;;;;;;33.99;26.02;98904.75;5095045;28;20027;-80
2022/06/19 11:25:20;;;;;;;7.85;2.67;;;;;;;33.99;25.59;98924.47;5094575;28;20020;-81
2022/06/19 11:27:56;;;;;;;42.60;4.93;;;;;;;33.88;26.17;98903.72;5094700;28;20055;-81
2022/06/19 11:30:32;;;;;;;21.10;3.45;;;;;;;33.88;25.79;98921.78;5094676;28;20183;-81
2022/06/19 11:32:58;;;;;;;11.93;2.80;;;;;;;33.83;26.03;98908.19;5094377;28;20135;-80
2022/06/19 11:35:24;;;;;;;10.65;3.00;;;;;;;33.84;26.11;98905.25;5094564;28;20038;-81
2022/06/19 11:37:55;;;;;;;11.18;3.00;;;;;;;33.83;26.07;98905.50;5094581;28;20604;-80
2022/06/19 11:40:30;;;;;;;10.40;3.17;;;;;;;33.80;25.98;98912.22;5094518;28;20031;-81
2022/06/19 11:43:00;;;;;;;11.55;3.03;;;;;;;33.75;26.38;98896.72;5094296;28;20039;-81
2022/06/19 11:45:33;;;;;;;7.47;2.47;;;;;;;33.64;26.99;98883.25;5094472;28;20032;-81
2022/06/19 11:48:03;;;;;;;10.40;3.13;;;;;;;33.70;26.86;98893.91;5093916;28;20081;-81
2022/06/19 11:50:35;;;;;;;7.35;2.58;;;;;;;33.70;27.62;98885.81;5031482;28;20042;-81
2022/06/19 11:53:06;;;;;;;7.70;2.40;;;;;;;33.72;28.35;98894.50;5031310;28;20504;-82
2022/06/19 11:56:11;;;;;;;6.55;2.25;;;;;;;33.77;27.66;98882.97;5031562;28;20099;-82
2022/06/19 11:58:50;;;;;;;6.18;2.90;;;;;;;33.74;27.86;98878.84;5013892;28;20057;-85
2022/06/19 12:01:21;;;;;;;12.52;3.03;;;;;;;33.68;28.03;98868.22;5031701;28;20031;-85